sensor_id;sensor_type;location;lat;lon;timestamp;P1;P2;P0
73973;PMS5003;62336;-26.094;27.994;2023-07-29T00:00:15;48;45;
73973;PMS5003;62336;-26.094;27.994;2023-07-29T00:02:41;48;45;
73973;PMS5003;62336;-26.094;27.994;2023-07-29T00:05:06;47;42;
73973;PMS5003;62336;-26.094;27.994;2023-07-29T00:07:32;48;46;
73973;PMS5003;62336;-26.094;27.994;2023-07-29T00:09:57;46;44;
73973;PMS5003;62336;-26.094;27.994;2023-07-29T00:12:22;51;48;
73973;PMS5003;62336;-26.094;27.994;2023-07-29T00:14:47;48;44;
73973;PMS5003;62336;-26.094;27.994;2023-07-29T00:17:13;42;40;
73973;PMS5003;62336;-26.094;27.994;2023-07-29T00:19:38;47;45;
73973;PMS5003;62336;-26.094;27.994;2023-07-29T00:22:04;40;39;
73973;PMS5003;62336;-26.094;27.994;2023-07-29T00:24:29;44;44;
73973;PMS5003;62336;-26.094;27.994;2023-07-29T00:26:54;44;43;
73973;PMS5003;62336;-26.094;27.994;2023-07-29T00:29:20;46;44;
73973;PMS5003;62336;-26.094;27.994;2023-07-29T00:31:45;49;41;
73973;PMS5003;62336;-26.094;27.994;2023-07-29T00:34:11;51;46;
73973;PMS5003;62336;-26.094;27.994;2023-07-29T00:36:37;47;44;
73973;PMS5003;62336;-26.094;27.994;2023-07-29T00:39:02;47;44;
73973;PMS5003;62336;-26.094;27.994;2023-07-29T00:41:27;49;46;
73973;PMS5003;62336;-26.094;27.994;2023-07-29T00:43:52;43;40;
73973;PMS5003;62336;-26.094;27.994;2023-07-29T00:46:18;47;45;
73973;PMS5003;62336;-26.094;27.994;2023-07-29T00:48:43;45;43;
73973;PMS5003;62336;-26.094;27.994;2023-07-29T00:51:08;45;45;
73973;PMS5003;62336;-26.094;27.994;2023-07-29T00:53:34;41;39;
73973;PMS5003;62336;-26.094;27.994;2023-07-29T00:55:59;42;40;
73973;PMS5003;62336;-26.094;27.994;2023-07-29T00:58:25;49;47;
73973;PMS5003;62336;-26.094;27.994;2023-07-29T01:00:50;40;38;
73973;PMS5003;62336;-26.094;27.994;2023-07-29T01:03:15;42;41;
73973;PMS5003;62336;-26.094;27.994;2023-07-29T01:05:43;48;46;
73973;PMS5003;62336;-26.094;27.994;2023-07-29T01:08:06;45;43;
73973;PMS5003;62336;-26.094;27.994;2023-07-29T01:10:34;37;35;
73973;PMS5003;62336;-26.094;27.994;2023-07-29T01:12:58;46;44;
73973;PMS5003;62336;-26.094;27.994;2023-07-29T01:15:22;37;35;
73973;PMS5003;62336;-26.094;27.994;2023-07-29T01:17:48;43;40;
73973;PMS5003;62336;-26.094;27.994;2023-07-29T01:20:14;42;38;
73973;PMS5003;62336;-26.094;27.994;2023-07-29T01:22:39;36;35;
73973;PMS5003;62336;-26.094;27.994;2023-07-29T01:25:04;39;38;
73973;PMS5003;62336;-26.094;27.994;2023-07-29T01:27:29;39;38;
73973;PMS5003;62336;-26.094;27.994;2023-07-29T01:29:55;43;37;
73973;PMS5003;62336;-26.094;27.994;2023-07-29T01:32:23;41;39;
73973;PMS5003;62336;-26.094;27.994;2023-07-29T01:34:47;44;39;
73973;PMS5003;62336;-26.094;27.994;2023-07-29T01:37:12;39;36;
73973;PMS5003;62336;-26.094;27.994;2023-07-29T01:39:37;38;37;
73973;PMS5003;62336;-26.094;27.994;2023-07-29T01:42:02;38;34;
73973;PMS5003;62336;-26.094;27.994;2023-07-29T01:44:27;39;34;
73973;PMS5003;62336;-26.094;27.994;2023-07-29T01:46:52;33;32;
73973;PMS5003;62336;-26.094;27.994;2023-07-29T01:49:17;38;36;
73973;PMS5003;62336;-26.094;27.994;2023-07-29T01:51:42;34;34;
73973;PMS5003;62336;-26.094;27.994;2023-07-29T01:54:08;36;35;
73973;PMS5003;62336;-26.094;27.994;2023-07-29T01:56:33;41;39;
73973;PMS5003;62336;-26.094;27.994;2023-07-29T01:58:59;36;35;
73973;PMS5003;62336;-26.094;27.994;2023-07-29T02:01:24;40;39;
73973;PMS5003;62336;-26.094;27.994;2023-07-29T02:03:49;35;34;
73973;PMS5003;62336;-26.094;27.994;2023-07-29T02:06:14;41;38;
73973;PMS5003;62336;-26.094;27.994;2023-07-29T02:08:39;33;32;
73973;PMS5003;62336;-26.094;27.994;2023-07-29T02:11:04;33;32;
73973;PMS5003;62336;-26.094;27.994;2023-07-29T02:13:29;39;35;
73973;PMS5003;62336;-26.094;27.994;2023-07-29T02:15:55;38;37;
73973;PMS5003;62336;-26.094;27.994;2023-07-29T02:18:20;36;33;
73973;PMS5003;62336;-26.094;27.994;2023-07-29T02:20:45;32;31;
73973;PMS5003;62336;-26.094;27.994;2023-07-29T02:23:12;35;33;
73973;PMS5003;62336;-26.094;27.994;2023-07-29T02:25:37;34;32;
73973;PMS5003;62336;-26.094;27.994;2023-07-29T02:28:02;35;33;
73973;PMS5003;62336;-26.094;27.994;2023-07-29T02:30:27;34;34;
73973;PMS5003;62336;-26.094;27.994;2023-07-29T02:32:53;34;31;
73973;PMS5003;62336;-26.094;27.994;2023-07-29T02:35:18;32;31;
73973;PMS5003;62336;-26.094;27.994;2023-07-29T02:37:43;31;29;
73973;PMS5003;62336;-26.094;27.994;2023-07-29T02:40:09;37;33;
73973;PMS5003;62336;-26.094;27.994;2023-07-29T02:42:35;31;29;
73973;PMS5003;62336;-26.094;27.994;2023-07-29T02:45:00;36;32;
73973;PMS5003;62336;-26.094;27.994;2023-07-29T02:47:26;35;34;
73973;PMS5003;62336;-26.094;27.994;2023-07-29T02:49:51;33;33;
73973;PMS5003;62336;-26.094;27.994;2023-07-29T02:52:17;37;35;
73973;PMS5003;62336;-26.094;27.994;2023-07-29T02:54:42;39;36;
73973;PMS5003;62336;-26.094;27.994;2023-07-29T02:57:07;37;36;
73973;PMS5003;62336;-26.094;27.994;2023-07-29T02:59:34;37;34;
73973;PMS5003;62336;-26.094;27.994;2023-07-29T03:01:58;32;29;
73973;PMS5003;62336;-26.094;27.994;2023-07-29T03:04:23;32;28;
73973;PMS5003;62336;-26.094;27.994;2023-07-29T03:06:49;32;30;
73973;PMS5003;62336;-26.094;27.994;2023-07-29T03:09:14;31;29;
73973;PMS5003;62336;-26.094;27.994;2023-07-29T03:11:39;29;25;
73973;PMS5003;62336;-26.094;27.994;2023-07-29T03:14:05;27;25;
73973;PMS5003;62336;-26.094;27.994;2023-07-29T03:16:30;29;26;
73973;PMS5003;62336;-26.094;27.994;2023-07-29T03:18:56;26;25;
73973;PMS5003;62336;-26.094;27.994;2023-07-29T03:21:22;27;26;
73973;PMS5003;62336;-26.094;27.994;2023-07-29T03:23:48;29;26;
73973;PMS5003;62336;-26.094;27.994;2023-07-29T03:26:13;26;25;
73973;PMS5003;62336;-26.094;27.994;2023-07-29T03:28:38;28;25;
73973;PMS5003;62336;-26.094;27.994;2023-07-29T03:31:03;25;24;
73973;PMS5003;62336;-26.094;27.994;2023-07-29T03:33:29;22;22;
73973;PMS5003;62336;-26.094;27.994;2023-07-29T03:35:55;25;22;
73973;PMS5003;62336;-26.094;27.994;2023-07-29T03:38:19;29;24;
73973;PMS5003;62336;-26.094;27.994;2023-07-29T03:40:45;22;21;
73973;PMS5003;62336;-26.094;27.994;2023-07-29T03:43:10;26;23;
73973;PMS5003;62336;-26.094;27.994;2023-07-29T03:45:36;29;27;
73973;PMS5003;62336;-26.094;27.994;2023-07-29T03:48:02;30;28;
73973;PMS5003;62336;-26.094;27.994;2023-07-29T03:50:26;26;24;
73973;PMS5003;62336;-26.094;27.994;2023-07-29T03:52:51;25;24;
73973;PMS5003;62336;-26.094;27.994;2023-07-29T03:55:16;30;28;
73973;PMS5003;62336;-26.094;27.994;2023-07-29T03:57:43;26;25;
73973;PMS5003;62336;-26.094;27.994;2023-07-29T04:00:08;34;28;
73973;PMS5003;62336;-26.094;27.994;2023-07-29T04:02:33;28;28;
73973;PMS5003;62336;-26.094;27.994;2023-07-29T04:04:58;26;26;
73973;PMS5003;62336;-26.094;27.994;2023-07-29T04:07:24;27;26;
73973;PMS5003;62336;-26.094;27.994;2023-07-29T04:09:49;27;26;
73973;PMS5003;62336;-26.094;27.994;2023-07-29T04:12:16;30;29;
73973;PMS5003;62336;-26.094;27.994;2023-07-29T04:14:41;27;26;
73973;PMS5003;62336;-26.094;27.994;2023-07-29T04:17:07;26;24;
73973;PMS5003;62336;-26.094;27.994;2023-07-29T04:19:32;24;22;
73973;PMS5003;62336;-26.094;27.994;2023-07-29T04:21:57;25;25;
73973;PMS5003;62336;-26.094;27.994;2023-07-29T04:24:23;26;24;
73973;PMS5003;62336;-26.094;27.994;2023-07-29T04:26:48;29;27;
73973;PMS5003;62336;-26.094;27.994;2023-07-29T04:29:14;30;28;
73973;PMS5003;62336;-26.094;27.994;2023-07-29T04:31:39;29;27;
73973;PMS5003;62336;-26.094;27.994;2023-07-29T04:34:05;30;29;
73973;PMS5003;62336;-26.094;27.994;2023-07-29T04:36:30;31;27;
73973;PMS5003;62336;-26.094;27.994;2023-07-29T04:38:56;26;25;
73973;PMS5003;62336;-26.094;27.994;2023-07-29T04:41:21;21;20;
73973;PMS5003;62336;-26.094;27.994;2023-07-29T04:43:46;28;28;
73973;PMS5003;62336;-26.094;27.994;2023-07-29T04:46:12;27;24;
73973;PMS5003;62336;-26.094;27.994;2023-07-29T04:48:37;28;27;
73973;PMS5003;62336;-26.094;27.994;2023-07-29T04:51:02;27;25;
73973;PMS5003;62336;-26.094;27.994;2023-07-29T04:53:27;26;24;
73973;PMS5003;62336;-26.094;27.994;2023-07-29T04:55:53;29;26;
73973;PMS5003;62336;-26.094;27.994;2023-07-29T04:58:18;26;24;
73973;PMS5003;62336;-26.094;27.994;2023-07-29T05:00:45;26;24;
73973;PMS5003;62336;-26.094;27.994;2023-07-29T05:03:08;35;30;
73973;PMS5003;62336;-26.094;27.994;2023-07-29T05:05:34;32;32;
73973;PMS5003;62336;-26.094;27.994;2023-07-29T05:07:59;35;32;
73973;PMS5003;62336;-26.094;27.994;2023-07-29T05:10:25;34;31;
73973;PMS5003;62336;-26.094;27.994;2023-07-29T05:12:51;35;33;
73973;PMS5003;62336;-26.094;27.994;2023-07-29T05:15:16;29;28;
73973;PMS5003;62336;-26.094;27.994;2023-07-29T05:17:41;31;30;
73973;PMS5003;62336;-26.094;27.994;2023-07-29T05:20:07;27;26;
73973;PMS5003;62336;-26.094;27.994;2023-07-29T05:22:33;31;29;
73973;PMS5003;62336;-26.094;27.994;2023-07-29T05:24:58;25;25;
73973;PMS5003;62336;-26.094;27.994;2023-07-29T05:27:23;31;29;
73973;PMS5003;62336;-26.094;27.994;2023-07-29T05:29:48;29;28;
73973;PMS5003;62336;-26.094;27.994;2023-07-29T05:32:14;30;27;
73973;PMS5003;62336;-26.094;27.994;2023-07-29T05:34:39;31;29;
73973;PMS5003;62336;-26.094;27.994;2023-07-29T05:37:05;27;26;
73973;PMS5003;62336;-26.094;27.994;2023-07-29T05:39:30;29;25;
73973;PMS5003;62336;-26.094;27.994;2023-07-29T05:41:55;34;30;
73973;PMS5003;62336;-26.094;27.994;2023-07-29T05:44:20;26;25;
73973;PMS5003;62336;-26.094;27.994;2023-07-29T05:46:46;22;22;
73973;PMS5003;62336;-26.094;27.994;2023-07-29T05:49:12;23;22;
73973;PMS5003;62336;-26.094;27.994;2023-07-29T05:51:37;20;19;
73973;PMS5003;62336;-26.094;27.994;2023-07-29T05:54:03;28;26;
73973;PMS5003;62336;-26.094;27.994;2023-07-29T05:56:28;22;21;
73973;PMS5003;62336;-26.094;27.994;2023-07-29T05:58:54;26;25;
73973;PMS5003;62336;-26.094;27.994;2023-07-29T06:01:19;24;21;
73973;PMS5003;62336;-26.094;27.994;2023-07-29T06:03:44;24;23;
73973;PMS5003;62336;-26.094;27.994;2023-07-29T06:06:10;27;24;
73973;PMS5003;62336;-26.094;27.994;2023-07-29T06:08:36;25;22;
73973;PMS5003;62336;-26.094;27.994;2023-07-29T06:11:01;20;20;
73973;PMS5003;62336;-26.094;27.994;2023-07-29T06:13:27;28;26;
73973;PMS5003;62336;-26.094;27.994;2023-07-29T06:15:52;25;23;
73973;PMS5003;62336;-26.094;27.994;2023-07-29T06:18:18;25;23;
73973;PMS5003;62336;-26.094;27.994;2023-07-29T06:20:43;25;24;
73973;PMS5003;62336;-26.094;27.994;2023-07-29T06:23:08;28;28;
73973;PMS5003;62336;-26.094;27.994;2023-07-29T06:25:34;27;24;
73973;PMS5003;62336;-26.094;27.994;2023-07-29T06:27:59;31;29;
73973;PMS5003;62336;-26.094;27.994;2023-07-29T06:30:25;31;29;
73973;PMS5003;62336;-26.094;27.994;2023-07-29T06:32:50;32;30;
73973;PMS5003;62336;-26.094;27.994;2023-07-29T06:35:15;27;26;
73973;PMS5003;62336;-26.094;27.994;2023-07-29T06:37:42;23;23;
73973;PMS5003;62336;-26.094;27.994;2023-07-29T06:40:07;26;25;
73973;PMS5003;62336;-26.094;27.994;2023-07-29T06:42:33;27;26;
73973;PMS5003;62336;-26.094;27.994;2023-07-29T06:44:58;22;22;
73973;PMS5003;62336;-26.094;27.994;2023-07-29T06:47:24;19;19;
73973;PMS5003;62336;-26.094;27.994;2023-07-29T06:49:49;30;29;
73973;PMS5003;62336;-26.094;27.994;2023-07-29T06:52:15;25;25;
73973;PMS5003;62336;-26.094;27.994;2023-07-29T06:54:40;24;23;
73973;PMS5003;62336;-26.094;27.994;2023-07-29T06:57:06;24;23;
73973;PMS5003;62336;-26.094;27.994;2023-07-29T06:59:32;24;22;
73973;PMS5003;62336;-26.094;27.994;2023-07-29T07:01:57;25;24;
73973;PMS5003;62336;-26.094;27.994;2023-07-29T07:04:22;25;25;
73973;PMS5003;62336;-26.094;27.994;2023-07-29T07:06:47;24;24;
73973;PMS5003;62336;-26.094;27.994;2023-07-29T07:09:12;25;23;
73973;PMS5003;62336;-26.094;27.994;2023-07-29T07:11:37;24;24;
73973;PMS5003;62336;-26.094;27.994;2023-07-29T07:14:02;27;25;
73973;PMS5003;62336;-26.094;27.994;2023-07-29T07:16:28;29;24;
73973;PMS5003;62336;-26.094;27.994;2023-07-29T07:18:53;28;28;
73973;PMS5003;62336;-26.094;27.994;2023-07-29T07:21:19;24;23;
73973;PMS5003;62336;-26.094;27.994;2023-07-29T07:23:44;26;23;
73973;PMS5003;62336;-26.094;27.994;2023-07-29T07:26:10;25;24;
73973;PMS5003;62336;-26.094;27.994;2023-07-29T07:28:36;23;21;
73973;PMS5003;62336;-26.094;27.994;2023-07-29T07:31:07;30;26;
73973;PMS5003;62336;-26.094;27.994;2023-07-29T07:33:26;25;23;
73973;PMS5003;62336;-26.094;27.994;2023-07-29T07:35:52;24;23;
73973;PMS5003;62336;-26.094;27.994;2023-07-29T07:38:17;24;23;
73973;PMS5003;62336;-26.094;27.994;2023-07-29T07:40:43;22;21;
73973;PMS5003;62336;-26.094;27.994;2023-07-29T07:43:08;20;20;
73973;PMS5003;62336;-26.094;27.994;2023-07-29T07:45:34;27;25;
73973;PMS5003;62336;-26.094;27.994;2023-07-29T07:47:58;26;23;
73973;PMS5003;62336;-26.094;27.994;2023-07-29T07:50:24;28;27;
73973;PMS5003;62336;-26.094;27.994;2023-07-29T07:52:49;27;24;
73973;PMS5003;62336;-26.094;27.994;2023-07-29T07:55:15;25;22;
73973;PMS5003;62336;-26.094;27.994;2023-07-29T07:57:40;24;23;
73973;PMS5003;62336;-26.094;27.994;2023-07-29T08:00:06;25;24;
73973;PMS5003;62336;-26.094;27.994;2023-07-29T08:02:32;24;23;
73973;PMS5003;62336;-26.094;27.994;2023-07-29T08:04:57;23;22;
73973;PMS5003;62336;-26.094;27.994;2023-07-29T08:07:22;25;23;
73973;PMS5003;62336;-26.094;27.994;2023-07-29T08:09:48;22;20;
73973;PMS5003;62336;-26.094;27.994;2023-07-29T08:12:13;29;26;
73973;PMS5003;62336;-26.094;27.994;2023-07-29T08:14:38;30;25;
73973;PMS5003;62336;-26.094;27.994;2023-07-29T08:17:04;23;23;
73973;PMS5003;62336;-26.094;27.994;2023-07-29T08:19:30;25;24;
73973;PMS5003;62336;-26.094;27.994;2023-07-29T08:21:55;24;22;
73973;PMS5003;62336;-26.094;27.994;2023-07-29T08:24:20;24;22;
73973;PMS5003;62336;-26.094;27.994;2023-07-29T08:26:46;19;19;
73973;PMS5003;62336;-26.094;27.994;2023-07-29T08:29:11;26;21;
73973;PMS5003;62336;-26.094;27.994;2023-07-29T08:31:37;19;19;
73973;PMS5003;62336;-26.094;27.994;2023-07-29T08:34:03;18;17;
73973;PMS5003;62336;-26.094;27.994;2023-07-29T08:36:28;18;17;
73973;PMS5003;62336;-26.094;27.994;2023-07-29T08:38:54;23;22;
73973;PMS5003;62336;-26.094;27.994;2023-07-29T08:41:19;18;17;
73973;PMS5003;62336;-26.094;27.994;2023-07-29T08:43:44;21;19;
73973;PMS5003;62336;-26.094;27.994;2023-07-29T08:46:09;18;17;
73973;PMS5003;62336;-26.094;27.994;2023-07-29T08:48:36;21;19;
73973;PMS5003;62336;-26.094;27.994;2023-07-29T08:51:00;20;19;
73973;PMS5003;62336;-26.094;27.994;2023-07-29T08:53:25;22;19;
73973;PMS5003;62336;-26.094;27.994;2023-07-29T08:55:50;22;22;
73973;PMS5003;62336;-26.094;27.994;2023-07-29T08:58:16;21;20;
73973;PMS5003;62336;-26.094;27.994;2023-07-29T09:00:40;20;19;
73973;PMS5003;62336;-26.094;27.994;2023-07-29T09:03:07;19;17;
73973;PMS5003;62336;-26.094;27.994;2023-07-29T09:05:33;16;15;
73973;PMS5003;62336;-26.094;27.994;2023-07-29T09:07:57;19;16;
73973;PMS5003;62336;-26.094;27.994;2023-07-29T09:10:23;17;16;
73973;PMS5003;62336;-26.094;27.994;2023-07-29T09:12:48;16;16;
73973;PMS5003;62336;-26.094;27.994;2023-07-29T09:15:15;22;22;
73973;PMS5003;62336;-26.094;27.994;2023-07-29T09:17:39;18;18;
73973;PMS5003;62336;-26.094;27.994;2023-07-29T09:20:04;20;20;
73973;PMS5003;62336;-26.094;27.994;2023-07-29T09:22:29;23;21;
73973;PMS5003;62336;-26.094;27.994;2023-07-29T09:24:54;20;19;
73973;PMS5003;62336;-26.094;27.994;2023-07-29T09:27:25;22;20;
73973;PMS5003;62336;-26.094;27.994;2023-07-29T09:29:45;25;22;
73973;PMS5003;62336;-26.094;27.994;2023-07-29T09:32:18;20;18;
73973;PMS5003;62336;-26.094;27.994;2023-07-29T09:34:37;20;19;
73973;PMS5003;62336;-26.094;27.994;2023-07-29T09:37:01;22;21;
73973;PMS5003;62336;-26.094;27.994;2023-07-29T09:39:26;20;20;
73973;PMS5003;62336;-26.094;27.994;2023-07-29T09:41:51;24;20;
73973;PMS5003;62336;-26.094;27.994;2023-07-29T09:44:16;18;18;
73973;PMS5003;62336;-26.094;27.994;2023-07-29T09:46:45;19;17;
73973;PMS5003;62336;-26.094;27.994;2023-07-29T09:49:07;14;14;
73973;PMS5003;62336;-26.094;27.994;2023-07-29T09:51:37;21;19;
73973;PMS5003;62336;-26.094;27.994;2023-07-29T09:53:58;20;19;
73973;PMS5003;62336;-26.094;27.994;2023-07-29T09:56:24;16;16;
73973;PMS5003;62336;-26.094;27.994;2023-07-29T09:58:49;17;17;
73973;PMS5003;62336;-26.094;27.994;2023-07-29T10:01:14;18;18;
73973;PMS5003;62336;-26.094;27.994;2023-07-29T10:03:39;19;19;
73973;PMS5003;62336;-26.094;27.994;2023-07-29T10:06:05;28;25;
73973;PMS5003;62336;-26.094;27.994;2023-07-29T10:08:30;21;21;
73973;PMS5003;62336;-26.094;27.994;2023-07-29T10:10:55;21;20;
73973;PMS5003;62336;-26.094;27.994;2023-07-29T10:13:21;21;21;
73973;PMS5003;62336;-26.094;27.994;2023-07-29T10:15:46;26;24;
73973;PMS5003;62336;-26.094;27.994;2023-07-29T10:18:12;27;26;
73973;PMS5003;62336;-26.094;27.994;2023-07-29T10:20:38;32;31;
73973;PMS5003;62336;-26.094;27.994;2023-07-29T10:23:03;25;24;
73973;PMS5003;62336;-26.094;27.994;2023-07-29T10:25:30;26;26;
73973;PMS5003;62336;-26.094;27.994;2023-07-29T10:27:56;21;21;
73973;PMS5003;62336;-26.094;27.994;2023-07-29T10:30:20;22;21;
73973;PMS5003;62336;-26.094;27.994;2023-07-29T10:32:45;21;19;
73973;PMS5003;62336;-26.094;27.994;2023-07-29T10:35:11;21;21;
73973;PMS5003;62336;-26.094;27.994;2023-07-29T10:37:37;22;21;
73973;PMS5003;62336;-26.094;27.994;2023-07-29T10:40:05;18;18;
73973;PMS5003;62336;-26.094;27.994;2023-07-29T10:42:27;23;22;
73973;PMS5003;62336;-26.094;27.994;2023-07-29T10:44:52;22;19;
73973;PMS5003;62336;-26.094;27.994;2023-07-29T10:47:18;19;18;
73973;PMS5003;62336;-26.094;27.994;2023-07-29T10:49:43;20;19;
73973;PMS5003;62336;-26.094;27.994;2023-07-29T10:52:08;21;21;
73973;PMS5003;62336;-26.094;27.994;2023-07-29T10:56:58;23;21;
73973;PMS5003;62336;-26.094;27.994;2023-07-29T10:59:32;20;18;
73973;PMS5003;62336;-26.094;27.994;2023-07-29T11:01:50;17;16;
73973;PMS5003;62336;-26.094;27.994;2023-07-29T11:11:31;18;16;
73973;PMS5003;62336;-26.094;27.994;2023-07-29T11:13:56;18;17;
73973;PMS5003;62336;-26.094;27.994;2023-07-29T11:16:22;20;19;
73973;PMS5003;62336;-26.094;27.994;2023-07-29T11:18:47;23;21;
73973;PMS5003;62336;-26.094;27.994;2023-07-29T11:21:12;22;18;
73973;PMS5003;62336;-26.094;27.994;2023-07-29T11:23:37;18;17;
73973;PMS5003;62336;-26.094;27.994;2023-07-29T11:26:03;21;21;
73973;PMS5003;62336;-26.094;27.994;2023-07-29T11:28:28;19;19;
73973;PMS5003;62336;-26.094;27.994;2023-07-29T11:30:53;21;20;
73973;PMS5003;62336;-26.094;27.994;2023-07-29T11:33:20;18;18;
73973;PMS5003;62336;-26.094;27.994;2023-07-29T11:35:44;22;21;
73973;PMS5003;62336;-26.094;27.994;2023-07-29T11:38:14;21;19;
73973;PMS5003;62336;-26.094;27.994;2023-07-29T11:40:36;21;20;
73973;PMS5003;62336;-26.094;27.994;2023-07-29T11:43:00;18;17;
73973;PMS5003;62336;-26.094;27.994;2023-07-29T11:45:26;23;21;
73973;PMS5003;62336;-26.094;27.994;2023-07-29T11:47:52;22;20;
73973;PMS5003;62336;-26.094;27.994;2023-07-29T11:50:16;20;19;
73973;PMS5003;62336;-26.094;27.994;2023-07-29T11:52:42;23;20;
73973;PMS5003;62336;-26.094;27.994;2023-07-29T11:55:07;18;18;
73973;PMS5003;62336;-26.094;27.994;2023-07-29T11:57:33;20;19;
73973;PMS5003;62336;-26.094;27.994;2023-07-29T11:59:57;19;18;
73973;PMS5003;62336;-26.094;27.994;2023-07-29T12:02:23;21;18;
73973;PMS5003;62336;-26.094;27.994;2023-07-29T12:04:48;18;17;
73973;PMS5003;62336;-26.094;27.994;2023-07-29T12:07:14;17;17;
73973;PMS5003;62336;-26.094;27.994;2023-07-29T12:09:38;20;18;
73973;PMS5003;62336;-26.094;27.994;2023-07-29T12:12:04;17;16;
73973;PMS5003;62336;-26.094;27.994;2023-07-29T12:14:28;21;19;
73973;PMS5003;62336;-26.094;27.994;2023-07-29T12:16:54;20;18;
73973;PMS5003;62336;-26.094;27.994;2023-07-29T12:19:19;25;24;
73973;PMS5003;62336;-26.094;27.994;2023-07-29T12:21:44;25;24;
73973;PMS5003;62336;-26.094;27.994;2023-07-29T12:24:09;20;20;
73973;PMS5003;62336;-26.094;27.994;2023-07-29T12:26:36;22;20;
73973;PMS5003;62336;-26.094;27.994;2023-07-29T12:29:10;24;24;
73973;PMS5003;62336;-26.094;27.994;2023-07-29T12:33:55;23;22;
73973;PMS5003;62336;-26.094;27.994;2023-07-29T12:36:16;20;20;
73973;PMS5003;62336;-26.094;27.994;2023-07-29T12:38:42;23;22;
73973;PMS5003;62336;-26.094;27.994;2023-07-29T12:41:07;22;20;
73973;PMS5003;62336;-26.094;27.994;2023-07-29T12:43:32;32;31;
73973;PMS5003;62336;-26.094;27.994;2023-07-29T12:45:58;26;26;
73973;PMS5003;62336;-26.094;27.994;2023-07-29T12:48:23;29;27;
73973;PMS5003;62336;-26.094;27.994;2023-07-29T12:50:49;36;35;
73973;PMS5003;62336;-26.094;27.994;2023-07-29T12:53:14;30;30;
73973;PMS5003;62336;-26.094;27.994;2023-07-29T12:55:40;35;34;
73973;PMS5003;62336;-26.094;27.994;2023-07-29T12:58:05;31;31;
73973;PMS5003;62336;-26.094;27.994;2023-07-29T13:00:30;34;32;
73973;PMS5003;62336;-26.094;27.994;2023-07-29T13:02:56;40;39;
73973;PMS5003;62336;-26.094;27.994;2023-07-29T13:05:22;42;40;
73973;PMS5003;62336;-26.094;27.994;2023-07-29T13:07:46;42;41;
73973;PMS5003;62336;-26.094;27.994;2023-07-29T13:10:12;48;48;
73973;PMS5003;62336;-26.094;27.994;2023-07-29T13:12:38;43;41;
73973;PMS5003;62336;-26.094;27.994;2023-07-29T13:15:04;44;44;
73973;PMS5003;62336;-26.094;27.994;2023-07-29T13:17:28;35;30;
73973;PMS5003;62336;-26.094;27.994;2023-07-29T13:19:53;33;31;
73973;PMS5003;62336;-26.094;27.994;2023-07-29T13:22:19;38;37;
73973;PMS5003;62336;-26.094;27.994;2023-07-29T13:24:44;47;46;
73973;PMS5003;62336;-26.094;27.994;2023-07-29T13:27:10;58;58;
73973;PMS5003;62336;-26.094;27.994;2023-07-29T13:29:36;58;55;
73973;PMS5003;62336;-26.094;27.994;2023-07-29T13:32:01;53;53;
73973;PMS5003;62336;-26.094;27.994;2023-07-29T13:34:27;53;52;
73973;PMS5003;62336;-26.094;27.994;2023-07-29T13:36:52;58;49;
73973;PMS5003;62336;-26.094;27.994;2023-07-29T13:39:17;48;47;
73973;PMS5003;62336;-26.094;27.994;2023-07-29T13:41:43;54;51;
73973;PMS5003;62336;-26.094;27.994;2023-07-29T13:44:08;49;48;
73973;PMS5003;62336;-26.094;27.994;2023-07-29T13:46:34;48;46;
73973;PMS5003;62336;-26.094;27.994;2023-07-29T13:48:59;49;49;
73973;PMS5003;62336;-26.094;27.994;2023-07-29T13:51:24;42;40;
73973;PMS5003;62336;-26.094;27.994;2023-07-29T13:53:50;57;54;
73973;PMS5003;62336;-26.094;27.994;2023-07-29T13:56:15;58;57;
73973;PMS5003;62336;-26.094;27.994;2023-07-29T13:58:40;69;68;
73973;PMS5003;62336;-26.094;27.994;2023-07-29T14:01:05;69;64;
73973;PMS5003;62336;-26.094;27.994;2023-07-29T14:03:31;58;54;
73973;PMS5003;62336;-26.094;27.994;2023-07-29T14:05:56;55;52;
73973;PMS5003;62336;-26.094;27.994;2023-07-29T14:08:22;53;49;
73973;PMS5003;62336;-26.094;27.994;2023-07-29T14:10:48;51;50;
73973;PMS5003;62336;-26.094;27.994;2023-07-29T14:13:13;55;53;
73973;PMS5003;62336;-26.094;27.994;2023-07-29T14:15:38;41;41;
73973;PMS5003;62336;-26.094;27.994;2023-07-29T14:18:04;40;39;
73973;PMS5003;62336;-26.094;27.994;2023-07-29T14:20:29;37;36;
73973;PMS5003;62336;-26.094;27.994;2023-07-29T14:22:54;31;30;
73973;PMS5003;62336;-26.094;27.994;2023-07-29T14:25:19;30;29;
73973;PMS5003;62336;-26.094;27.994;2023-07-29T14:27:45;33;32;
73973;PMS5003;62336;-26.094;27.994;2023-07-29T14:30:10;31;30;
73973;PMS5003;62336;-26.094;27.994;2023-07-29T14:32:35;35;32;
73973;PMS5003;62336;-26.094;27.994;2023-07-29T14:35:00;39;38;
73973;PMS5003;62336;-26.094;27.994;2023-07-29T14:37:25;40;39;
73973;PMS5003;62336;-26.094;27.994;2023-07-29T14:39:50;43;43;
73973;PMS5003;62336;-26.094;27.994;2023-07-29T14:42:16;38;37;
73973;PMS5003;62336;-26.094;27.994;2023-07-29T14:44:41;41;36;
73973;PMS5003;62336;-26.094;27.994;2023-07-29T14:47:07;39;37;
73973;PMS5003;62336;-26.094;27.994;2023-07-29T14:49:32;39;38;
73973;PMS5003;62336;-26.094;27.994;2023-07-29T14:51:57;46;44;
73973;PMS5003;62336;-26.094;27.994;2023-07-29T14:54:24;41;41;
73973;PMS5003;62336;-26.094;27.994;2023-07-29T14:56:48;46;45;
73973;PMS5003;62336;-26.094;27.994;2023-07-29T14:59:14;44;43;
73973;PMS5003;62336;-26.094;27.994;2023-07-29T15:01:39;49;46;
73973;PMS5003;62336;-26.094;27.994;2023-07-29T15:04:04;47;46;
73973;PMS5003;62336;-26.094;27.994;2023-07-29T15:06:29;50;48;
73973;PMS5003;62336;-26.094;27.994;2023-07-29T15:08:54;54;52;
73973;PMS5003;62336;-26.094;27.994;2023-07-29T15:11:20;47;45;
73973;PMS5003;62336;-26.094;27.994;2023-07-29T15:13:45;54;50;
73973;PMS5003;62336;-26.094;27.994;2023-07-29T15:16:11;45;43;
73973;PMS5003;62336;-26.094;27.994;2023-07-29T15:18:37;49;47;
73973;PMS5003;62336;-26.094;27.994;2023-07-29T15:21:01;54;51;
73973;PMS5003;62336;-26.094;27.994;2023-07-29T15:23:27;53;51;
73973;PMS5003;62336;-26.094;27.994;2023-07-29T15:25:53;52;49;
73973;PMS5003;62336;-26.094;27.994;2023-07-29T15:28:18;52;48;
73973;PMS5003;62336;-26.094;27.994;2023-07-29T15:30:44;55;53;
73973;PMS5003;62336;-26.094;27.994;2023-07-29T15:33:08;59;58;
73973;PMS5003;62336;-26.094;27.994;2023-07-29T15:35:36;52;52;
73973;PMS5003;62336;-26.094;27.994;2023-07-29T15:37:59;54;53;
73973;PMS5003;62336;-26.094;27.994;2023-07-29T15:40:25;59;54;
73973;PMS5003;62336;-26.094;27.994;2023-07-29T15:42:51;59;55;
73973;PMS5003;62336;-26.094;27.994;2023-07-29T15:45:16;59;55;